createdAt,value
2023-03-26T00:01:38.125Z,54.10
2023-03-26T00:04:06.234Z,54.40
2023-03-26T00:06:34.956Z,54.60
2023-03-26T00:09:01.626Z,54.40
2023-03-26T00:11:29.565Z,54.30
2023-03-26T00:13:57.077Z,54.40
2023-03-26T00:16:25.580Z,54.30
2023-03-26T00:18:53.853Z,54.20
2023-03-26T00:21:22.885Z,54.10
2023-03-26T00:23:49.592Z,53.90
2023-03-26T00:26:16.671Z,54.00
2023-03-26T00:28:43.647Z,54.20
2023-03-26T00:31:12.371Z,54.00
2023-03-26T00:33:39.862Z,54.20
2023-03-26T00:36:11.209Z,54.30
2023-03-26T00:38:38.957Z,54.30
2023-03-26T00:41:07.832Z,54.80
2023-03-26T00:43:35.967Z,54.70
2023-03-26T00:46:03.085Z,55.00
2023-03-26T00:48:42.169Z,54.80
2023-03-26T00:51:13.893Z,54.80
2023-03-26T00:53:40.741Z,54.80
2023-03-26T00:56:08.199Z,54.80
2023-03-26T00:58:34.912Z,54.60
2023-03-26T01:01:05.129Z,54.70
2023-03-26T01:03:33.753Z,54.50
2023-03-26T01:06:01.901Z,54.40
2023-03-26T01:08:31.636Z,54.70
2023-03-26T01:11:01.087Z,54.50
2023-03-26T01:13:28.053Z,54.50
2023-03-26T01:15:55.007Z,54.80
2023-03-26T01:18:23.575Z,54.80
2023-03-26T01:20:51.460Z,54.90
2023-03-26T01:23:24.580Z,54.80
2023-03-26T01:26:01.540Z,55.40
2023-03-26T01:28:32.132Z,55.50
2023-03-26T01:31:07.085Z,55.10
2023-03-26T01:33:41.544Z,55.50
2023-03-26T01:36:15.056Z,55.70
2023-03-26T01:38:49.814Z,55.70
2023-03-26T01:41:21.380Z,55.50
2023-03-26T01:43:54.148Z,55.40
2023-03-26T01:46:23.650Z,55.30
2023-03-26T01:48:51.789Z,55.00
2023-03-26T01:51:27.295Z,55.10
2023-03-26T01:53:55.152Z,55.40
2023-03-26T01:56:28.373Z,55.40
2023-03-26T01:59:08.313Z,55.10
2023-03-26T02:01:43.410Z,55.10
2023-03-26T02:04:21.683Z,55.00
2023-03-26T02:06:52.562Z,55.10
2023-03-26T02:09:24.558Z,55.20
2023-03-26T02:11:53.863Z,55.20
2023-03-26T02:14:20.993Z,55.00
2023-03-26T02:16:47.744Z,55.30
2023-03-26T02:19:14.971Z,55.50
2023-03-26T02:21:42.167Z,55.90
2023-03-26T02:24:09.221Z,56.30
2023-03-26T02:26:36.133Z,56.00
2023-03-26T02:29:04.232Z,56.20
2023-03-26T02:31:30.989Z,56.00
2023-03-26T02:33:57.819Z,55.60
2023-03-26T02:36:24.935Z,55.90
2023-03-26T02:38:51.771Z,55.80
2023-03-26T02:41:18.525Z,56.30
2023-03-26T02:43:45.262Z,56.70
2023-03-26T02:46:13.499Z,56.40
2023-03-26T02:48:40.284Z,56.50
2023-03-26T02:51:07.443Z,56.00
2023-03-26T02:53:34.235Z,56.30
2023-03-26T02:56:01.336Z,56.10
2023-03-26T02:58:28.076Z,55.90
2023-03-26T03:00:54.946Z,55.90
2023-03-26T03:03:23.719Z,55.70
2023-03-26T03:05:50.884Z,55.70
2023-03-26T03:08:17.658Z,55.50
2023-03-26T03:10:44.454Z,55.30
2023-03-26T03:13:11.206Z,55.10
2023-03-26T03:15:37.879Z,55.00
2023-03-26T03:18:04.975Z,54.80
2023-03-26T03:20:33.072Z,54.70
2023-03-26T03:22:59.911Z,54.60
2023-03-26T03:25:26.655Z,54.50
2023-03-26T03:27:53.329Z,54.40
2023-03-26T03:30:20.271Z,54.40
2023-03-26T03:32:47.292Z,54.40
2023-03-26T03:35:14.030Z,54.40
2023-03-26T03:37:42.273Z,54.60
2023-03-26T03:40:10.375Z,54.40
2023-03-26T03:42:37.291Z,54.20
2023-03-26T03:45:04.870Z,54.10
2023-03-26T03:47:32.029Z,54.00
2023-03-26T03:49:58.779Z,54.00
2023-03-26T03:52:25.532Z,53.90
2023-03-26T03:54:53.822Z,53.90
2023-03-26T03:57:20.674Z,53.80
2023-03-26T03:59:48.507Z,53.80
2023-03-26T04:02:16.009Z,53.80
2023-03-26T04:04:42.793Z,53.70
2023-03-26T04:07:09.530Z,53.50
2023-03-26T04:09:36.172Z,53.40
2023-03-26T04:12:04.322Z,53.20
2023-03-26T04:14:30.982Z,53.30
2023-03-26T04:16:57.728Z,53.30
2023-03-26T04:19:24.433Z,53.40
2023-03-26T04:21:51.134Z,53.40
2023-03-26T04:24:17.841Z,54.20
2023-03-26T04:26:44.559Z,53.60
2023-03-26T04:29:13.769Z,53.50
2023-03-26T04:31:41.650Z,53.50
2023-03-26T04:34:14.104Z,53.40
2023-03-26T04:36:40.981Z,53.40
2023-03-26T04:39:10.202Z,53.30
2023-03-26T04:41:36.987Z,53.20
2023-03-26T04:44:03.769Z,53.20
2023-03-26T04:46:31.822Z,53.10
2023-03-26T04:48:58.847Z,53.10
2023-03-26T04:51:30.530Z,53.00
2023-03-26T04:53:59.248Z,53.00
2023-03-26T04:56:34.591Z,52.90
2023-03-26T04:59:02.259Z,52.90
2023-03-26T05:01:29.053Z,52.80
2023-03-26T05:03:57.444Z,52.90
2023-03-26T05:06:25.073Z,52.70
2023-03-26T05:08:51.814Z,52.80
2023-03-26T05:11:18.539Z,52.80
2023-03-26T05:13:45.393Z,53.50
2023-03-26T05:16:12.140Z,52.80
2023-03-26T05:18:39.363Z,52.70
2023-03-26T05:21:07.786Z,52.50
2023-03-26T05:23:34.488Z,52.60
2023-03-26T05:26:01.147Z,52.70
2023-03-26T05:28:27.831Z,52.60
2023-03-26T05:30:54.946Z,52.60
2023-03-26T05:33:22.121Z,52.60
2023-03-26T05:35:59.790Z,52.70
2023-03-26T05:38:28.435Z,52.90
2023-03-26T05:40:58.199Z,52.90
2023-03-26T05:43:24.967Z,52.80
2023-03-26T05:45:51.795Z,52.90
2023-03-26T05:48:18.773Z,52.80
2023-03-26T05:50:47.923Z,53.00
2023-03-26T05:53:14.754Z,53.00
2023-03-26T05:55:43.878Z,53.10
2023-03-26T05:58:10.551Z,53.00
2023-03-26T06:00:37.318Z,52.90
2023-03-26T06:03:04.678Z,53.20
2023-03-26T06:05:32.461Z,52.90
2023-03-26T06:07:59.220Z,53.00
2023-03-26T06:10:25.959Z,52.90
2023-03-26T06:12:53.997Z,53.00
2023-03-26T06:15:20.693Z,53.10
2023-03-26T06:17:47.715Z,53.00
2023-03-26T06:20:14.898Z,53.00
2023-03-26T06:22:41.888Z,53.20
2023-03-26T06:25:08.914Z,53.30
2023-03-26T06:27:35.607Z,53.40
2023-03-26T06:30:04.382Z,53.50
2023-03-26T06:32:31.190Z,53.70
2023-03-26T06:34:57.908Z,53.80
2023-03-26T06:37:24.697Z,53.90
2023-03-26T06:39:51.485Z,54.10
2023-03-26T06:42:18.406Z,54.20
2023-03-26T06:44:45.111Z,54.20
2023-03-26T06:47:13.139Z,54.30
2023-03-26T06:49:39.805Z,54.40
2023-03-26T06:52:06.452Z,54.60
2023-03-26T06:54:33.207Z,54.60
2023-03-26T06:56:59.971Z,54.60
2023-03-26T06:59:26.760Z,54.70
2023-03-26T07:01:53.518Z,54.50
2023-03-26T07:04:21.628Z,54.70
2023-03-26T07:06:48.531Z,54.20
2023-03-26T07:09:15.292Z,54.10
2023-03-26T07:11:42.008Z,54.10
2023-03-26T07:14:08.750Z,54.00
2023-03-26T07:16:35.476Z,54.00
2023-03-26T07:19:02.249Z,54.00
2023-03-26T07:21:30.966Z,53.80
2023-03-26T07:23:58.298Z,53.80
2023-03-26T07:26:34.325Z,53.70
2023-03-26T07:29:12.331Z,53.70
2023-03-26T07:31:46.256Z,53.80
2023-03-26T07:34:26.272Z,53.90
2023-03-26T07:37:02.200Z,53.40
2023-03-26T07:39:42.176Z,53.40
2023-03-26T07:42:23.295Z,53.30
2023-03-26T07:44:57.799Z,53.40
2023-03-26T07:47:28.968Z,53.20
2023-03-26T07:49:56.984Z,53.10
2023-03-26T07:52:26.491Z,52.80
2023-03-26T07:54:53.906Z,52.60
2023-03-26T07:57:32.237Z,52.60
2023-03-26T08:00:03.557Z,52.60
2023-03-26T08:03:02.011Z,52.40
2023-03-26T08:05:32.165Z,52.50
2023-03-26T08:08:08.730Z,52.20
2023-03-26T08:10:41.690Z,51.60
2023-03-26T08:13:20.676Z,51.90
2023-03-26T08:15:56.254Z,51.50
2023-03-26T08:18:34.613Z,51.80
2023-03-26T08:21:07.111Z,51.90
2023-03-26T08:23:50.311Z,51.80
2023-03-26T08:26:27.311Z,51.80
2023-03-26T08:29:03.105Z,51.60
2023-03-26T08:31:34.611Z,51.50
2023-03-26T08:34:02.024Z,51.60
2023-03-26T08:36:28.762Z,51.50
2023-03-26T08:38:56.953Z,51.60
2023-03-26T08:41:49.816Z,51.50
2023-03-26T08:44:55.538Z,51.40
2023-03-26T08:47:58.983Z,51.50
2023-03-26T08:50:48.552Z,51.70
2023-03-26T08:53:56.231Z,51.20
2023-03-26T08:56:30.006Z,51.70
2023-03-26T08:59:26.018Z,52.00
2023-03-26T09:02:28.049Z,52.10
2023-03-26T09:05:33.815Z,51.60
2023-03-26T09:08:38.807Z,51.90
2023-03-26T09:11:43.767Z,51.80
2023-03-26T09:14:36.634Z,51.20
2023-03-26T09:17:29.104Z,50.70
2023-03-26T09:20:33.539Z,51.10
2023-03-26T09:23:27.240Z,51.30
2023-03-26T09:26:04.451Z,50.80
2023-03-26T09:29:12.929Z,50.10
2023-03-26T09:34:44.381Z,51.30
2023-03-26T09:37:24.900Z,51.00
2023-03-26T09:40:08.916Z,50.80
2023-03-26T09:42:44.402Z,50.30
2023-03-26T09:45:39.820Z,50.90
2023-03-26T09:48:31.706Z,51.20
2023-03-26T09:51:14.664Z,50.90
2023-03-26T09:54:05.405Z,49.90
2023-03-26T09:56:40.037Z,49.40
2023-03-26T09:59:38.180Z,49.30
2023-03-26T10:02:18.976Z,50.30
2023-03-26T10:05:17.592Z,50.80
2023-03-26T10:08:12.398Z,50.80
2023-03-26T10:10:46.972Z,50.70
2023-03-26T10:13:26.240Z,49.80
2023-03-26T10:16:05.510Z,50.10
2023-03-26T10:18:44.582Z,50.00
2023-03-26T10:21:19.901Z,49.30
2023-03-26T10:24:19.698Z,49.70
2023-03-26T10:27:09.364Z,49.60
2023-03-26T10:30:10.164Z,50.60
2023-03-26T10:32:46.719Z,50.80
2023-03-26T10:35:26.067Z,50.30
2023-03-26T10:38:03.764Z,49.70
2023-03-26T10:40:36.683Z,49.20
2023-03-26T10:43:20.891Z,50.60
2023-03-26T10:46:18.963Z,48.30
2023-03-26T10:49:28.249Z,48.50
2023-03-26T10:51:58.440Z,47.80
2023-03-26T10:54:35.484Z,49.50
2023-03-26T10:57:11.587Z,49.10
2023-03-26T10:59:38.562Z,50.20
2023-03-26T11:02:30.283Z,50.50
2023-03-26T11:05:19.588Z,50.80
2023-03-26T11:07:52.189Z,50.20
2023-03-26T11:10:28.281Z,48.90
2023-03-26T11:13:05.069Z,48.60
2023-03-26T11:15:36.245Z,49.80
2023-03-26T11:18:13.472Z,49.70
2023-03-26T11:20:44.250Z,48.70
2023-03-26T11:23:24.420Z,47.70
2023-03-26T11:26:06.477Z,49.50
2023-03-26T11:29:31.645Z,48.30
2023-03-26T11:32:05.272Z,50.20
2023-03-26T11:34:37.097Z,47.70
2023-03-26T11:37:12.424Z,48.60
2023-03-26T11:39:45.623Z,48.50
2023-03-26T11:42:16.109Z,49.10
2023-03-26T11:44:51.152Z,50.20
2023-03-26T11:47:23.386Z,49.70
2023-03-26T11:49:54.461Z,49.20
2023-03-26T11:52:21.586Z,47.90
2023-03-26T11:54:48.262Z,47.50
2023-03-26T11:57:19.736Z,47.60
2023-03-26T11:59:57.328Z,47.60
2023-03-26T12:02:27.977Z,47.10
2023-03-26T12:05:14.146Z,46.90
2023-03-26T12:07:46.822Z,48.20
2023-03-26T12:10:23.016Z,49.00
2023-03-26T12:12:53.703Z,48.00
2023-03-26T12:15:22.230Z,48.00
2023-03-26T12:17:50.515Z,48.10
2023-03-26T12:20:33.256Z,48.50
2023-03-26T12:23:01.732Z,50.40
2023-03-26T12:25:29.838Z,49.50
2023-03-26T12:27:59.937Z,49.00
2023-03-26T12:30:29.743Z,49.40
2023-03-26T12:32:59.473Z,47.60
2023-03-26T12:35:28.171Z,48.30
2023-03-26T12:37:56.458Z,50.20
2023-03-26T12:40:30.497Z,49.70
2023-03-26T12:44:56.290Z,47.30
2023-03-26T12:47:15.069Z,46.40
2023-03-26T12:48:38.027Z,48.20
2023-03-26T12:51:11.951Z,48.30
2023-03-26T12:53:52.844Z,48.60
2023-03-26T12:56:26.636Z,49.10
2023-03-26T12:59:11.500Z,49.40
2023-03-26T13:01:54.194Z,46.60
2023-03-26T13:04:51.913Z,44.30
2023-03-26T13:07:33.798Z,44.80
2023-03-26T13:10:24.584Z,45.40
2023-03-26T13:12:54.829Z,45.00
2023-03-26T13:15:30.346Z,45.50
2023-03-26T13:18:07.755Z,43.70
2023-03-26T13:20:47.732Z,42.90
2023-03-26T13:23:26.156Z,42.80
2023-03-26T13:26:01.294Z,43.80
2023-03-26T13:28:36.881Z,44.00
2023-03-26T13:31:08.798Z,44.10
2023-03-26T13:33:48.503Z,43.50
2023-03-26T13:36:24.345Z,44.40
2023-03-26T13:39:15.469Z,45.10
2023-03-26T13:42:05.996Z,45.80
2023-03-26T13:44:43.116Z,45.30
2023-03-26T13:47:14.870Z,45.70
2023-03-26T13:49:47.037Z,47.50
2023-03-26T13:52:19.237Z,47.60
2023-03-26T13:54:49.242Z,44.60
2023-03-26T13:57:22.799Z,46.70
2023-03-26T13:59:55.567Z,45.20
2023-03-26T14:02:27.582Z,45.50
2023-03-26T14:05:00.183Z,45.90
2023-03-26T14:07:32.362Z,46.30
2023-03-26T14:10:04.141Z,44.80
2023-03-26T14:12:44.064Z,45.80
2023-03-26T14:15:16.060Z,47.20
2023-03-26T14:21:48.429Z,47.40
2023-03-26T14:24:50.505Z,46.50
2023-03-26T14:27:38.196Z,48.00
2023-03-26T14:30:33.611Z,46.80
2023-03-26T14:33:12.587Z,46.80
2023-03-26T14:35:46.303Z,45.40
2023-03-26T14:38:36.710Z,45.20
2023-03-26T14:41:18.952Z,46.30
2023-03-26T14:44:19.158Z,44.80
2023-03-26T14:47:02.328Z,45.80
2023-03-26T14:49:46.054Z,45.20
2023-03-26T14:52:20.889Z,45.50
2023-03-26T14:54:53.771Z,46.10
2023-03-26T14:57:52.588Z,46.20
2023-03-26T15:00:56.509Z,45.20
2023-03-26T15:04:28.446Z,45.60
2023-03-26T15:07:22.302Z,45.30
2023-03-26T15:10:30.704Z,45.40
2023-03-26T15:13:21.700Z,46.00
2023-03-26T15:16:26.159Z,48.50
2023-03-26T15:19:27.118Z,48.70
2023-03-26T15:22:30.304Z,48.30
2023-03-26T15:25:22.005Z,47.50
2023-03-26T15:28:41.877Z,48.20
2023-03-26T15:31:27.983Z,48.30
2023-03-26T15:34:46.633Z,46.90
2023-03-26T15:37:41.168Z,46.70
2023-03-26T15:40:27.650Z,48.10
2023-03-26T15:43:03.704Z,48.50
2023-03-26T15:45:33.771Z,48.70
2023-03-26T15:48:21.404Z,48.60
2023-03-26T15:50:53.486Z,48.30
2023-03-26T15:53:37.855Z,48.40
2023-03-26T15:56:16.627Z,48.90
2023-03-26T15:58:51.373Z,49.00
2023-03-26T16:01:28.648Z,48.60
2023-03-26T16:04:10.401Z,48.50
2023-03-26T16:06:49.124Z,48.70
2023-03-26T16:09:33.163Z,48.60
2023-03-26T16:12:04.168Z,48.80
2023-03-26T16:14:43.346Z,49.70
2023-03-26T16:17:16.523Z,48.80
2023-03-26T16:19:59.003Z,49.00
2023-03-26T16:22:44.633Z,48.90
2023-03-26T16:25:32.769Z,48.90
2023-03-26T16:28:32.520Z,49.20
2023-03-26T16:31:37.084Z,49.50
2023-03-26T16:34:27.682Z,49.80
2023-03-26T16:36:59.165Z,49.90
2023-03-26T16:39:39.815Z,50.10
2023-03-26T16:42:40.427Z,50.10
2023-03-26T16:45:19.656Z,50.10
2023-03-26T16:47:53.921Z,50.10
2023-03-26T16:50:26.601Z,50.30
2023-03-26T16:53:05.027Z,50.30
2023-03-26T16:55:39.360Z,50.30
2023-03-26T16:58:22.045Z,50.20
2023-03-26T17:00:51.275Z,50.30
2023-03-26T17:03:31.438Z,50.40
2023-03-26T17:06:23.150Z,50.40
2023-03-26T17:08:58.646Z,50.50
2023-03-26T17:11:32.578Z,50.60
2023-03-26T17:14:10.679Z,50.60
2023-03-26T17:16:43.399Z,50.60
2023-03-26T17:19:23.074Z,50.70
2023-03-26T17:21:55.941Z,50.80
2023-03-26T17:24:33.580Z,50.80
2023-03-26T17:27:07.096Z,50.90
2023-03-26T17:30:00.198Z,51.00
2023-03-26T17:32:53.224Z,50.80
2023-03-26T17:35:36.460Z,50.70
2023-03-26T17:38:03.835Z,50.80
2023-03-26T17:40:48.533Z,51.10
2023-03-26T17:43:48.921Z,51.50
2023-03-26T17:46:33.965Z,50.40
2023-03-26T17:49:05.087Z,50.60
2023-03-26T17:51:47.298Z,50.40
2023-03-26T17:54:19.690Z,50.20
2023-03-26T17:56:48.551Z,50.40
2023-03-26T17:59:19.542Z,50.40
2023-03-26T18:01:46.868Z,50.30
2023-03-26T18:04:19.001Z,49.90
2023-03-26T18:07:05.938Z,50.00
2023-03-26T18:09:47.017Z,49.80
2023-03-26T18:13:04.752Z,50.00
2023-03-26T18:15:42.773Z,49.80
2023-03-26T18:18:16.401Z,49.90
2023-03-26T18:20:44.225Z,49.90
2023-03-26T18:23:20.708Z,50.30
2023-03-26T18:25:52.125Z,50.10
2023-03-26T18:28:18.772Z,49.90
2023-03-26T18:30:48.626Z,49.70
2023-03-26T18:33:15.912Z,49.30
2023-03-26T18:35:44.771Z,49.10
2023-03-26T18:38:15.743Z,48.80
2023-03-26T18:40:44.837Z,49.30
2023-03-26T18:43:25.357Z,49.20
2023-03-26T18:46:03.977Z,49.50
2023-03-26T18:48:30.782Z,49.80
2023-03-26T18:51:05.737Z,50.10
2023-03-26T18:53:37.587Z,50.10
2023-03-26T18:56:18.530Z,50.30
2023-03-26T18:58:50.854Z,50.10
2023-03-26T19:01:25.862Z,50.60
2023-03-26T19:03:53.798Z,50.20
2023-03-26T19:06:21.145Z,50.10
2023-03-26T19:08:48.464Z,50.10
2023-03-26T19:11:17.473Z,49.90
2023-03-26T19:13:50.029Z,50.30
2023-03-26T19:16:23.100Z,50.20
2023-03-26T19:18:52.970Z,49.80
2023-03-26T19:21:20.672Z,49.60
2023-03-26T19:23:47.641Z,49.50
2023-03-26T19:26:15.090Z,49.60
2023-03-26T19:28:43.917Z,49.40
2023-03-26T19:31:19.258Z,49.70
2023-03-26T19:33:54.991Z,50.50
2023-03-26T19:36:24.693Z,49.80
2023-03-26T19:38:52.965Z,50.10
2023-03-26T19:41:22.399Z,50.10
2023-03-26T19:43:49.677Z,49.70
2023-03-26T19:46:16.638Z,49.60
2023-03-26T19:48:47.624Z,49.90
2023-03-26T19:51:22.918Z,49.80
2023-03-26T19:53:53.181Z,50.00
2023-03-26T19:56:20.848Z,50.00
2023-03-26T19:58:47.947Z,49.80
2023-03-26T20:01:16.931Z,49.90
2023-03-26T20:03:46.407Z,49.70
2023-03-26T20:06:16.318Z,50.30
2023-03-26T20:08:43.033Z,50.70
2023-03-26T20:11:15.206Z,50.80
2023-03-26T20:13:41.926Z,50.50
2023-03-26T20:16:14.646Z,50.50
2023-03-26T20:18:41.370Z,50.60
2023-03-26T20:21:10.770Z,50.50
2023-03-26T20:23:39.027Z,50.60
2023-03-26T20:26:05.981Z,50.10
2023-03-26T20:28:38.845Z,50.60
2023-03-26T20:31:17.421Z,50.90
2023-03-26T20:33:44.174Z,50.30
2023-03-26T20:36:13.045Z,50.60
2023-03-26T20:38:41.645Z,50.80
2023-03-26T20:41:12.903Z,50.40
2023-03-26T20:43:39.927Z,50.30
2023-03-26T20:46:06.693Z,49.90
2023-03-26T20:48:33.362Z,50.30
2023-03-26T20:51:00.114Z,50.00
2023-03-26T20:53:26.849Z,50.70
2023-03-26T20:55:54.997Z,50.40
2023-03-26T20:58:31.026Z,50.30
2023-03-26T21:01:00.732Z,50.40
2023-03-26T21:03:27.627Z,50.40
2023-03-26T21:05:54.356Z,50.90
2023-03-26T21:08:21.605Z,50.10
2023-03-26T21:10:48.791Z,50.10
2023-03-26T21:13:30.660Z,49.90
2023-03-26T21:15:59.474Z,50.30
2023-03-26T21:18:28.185Z,50.40
2023-03-26T21:21:14.083Z,50.20
2023-03-26T21:23:52.894Z,50.00
2023-03-26T21:26:30.396Z,49.60
2023-03-26T21:28:58.732Z,49.10
2023-03-26T21:31:26.019Z,50.10
2023-03-26T21:33:53.220Z,50.30
2023-03-26T21:36:20.556Z,50.20
2023-03-26T21:38:47.772Z,49.40
2023-03-26T21:41:25.693Z,50.50
2023-03-26T21:43:52.334Z,50.60
2023-03-26T21:46:20.983Z,50.80
2023-03-26T21:48:48.306Z,51.10
2023-03-26T21:51:15.826Z,50.90
2023-03-26T21:53:43.042Z,51.50
2023-03-26T21:56:20.083Z,50.70
2023-03-26T21:58:54.150Z,50.40
2023-03-26T22:01:30.459Z,50.60
2023-03-26T22:04:06.208Z,50.70
2023-03-26T22:06:39.198Z,50.90
2023-03-26T22:09:06.444Z,50.60
2023-03-26T22:11:33.103Z,50.60
2023-03-26T22:13:59.985Z,50.50
2023-03-26T22:16:28.132Z,50.10
2023-03-26T22:18:54.814Z,50.20
2023-03-26T22:21:21.508Z,50.20
2023-03-26T22:23:48.232Z,50.20
2023-03-26T22:26:14.909Z,50.40
2023-03-26T22:28:41.614Z,50.30
2023-03-26T22:31:09.333Z,50.10
2023-03-26T22:33:38.533Z,50.00
2023-03-26T22:36:06.147Z,50.00
2023-03-26T22:38:51.863Z,50.10
2023-03-26T22:41:18.527Z,49.50
2023-03-26T22:43:45.190Z,49.80
2023-03-26T22:46:12.153Z,50.00
2023-03-26T22:48:40.164Z,49.30
2023-03-26T22:51:08.849Z,49.70
2023-03-26T22:53:36.186Z,49.00
2023-03-26T22:56:03.464Z,48.90
2023-03-26T22:58:30.826Z,48.30
2023-03-26T23:01:02.707Z,48.00
2023-03-26T23:03:35.298Z,47.80
2023-03-26T23:06:05.746Z,48.30
2023-03-26T23:08:33.631Z,48.10
2023-03-26T23:11:00.438Z,47.90
2023-03-26T23:13:27.502Z,48.20
2023-03-26T23:15:55.502Z,48.10
2023-03-26T23:18:22.996Z,48.00
2023-03-26T23:20:50.189Z,48.60
2023-03-26T23:23:19.480Z,48.80
2023-03-26T23:25:46.152Z,49.00
2023-03-26T23:28:12.855Z,49.00
2023-03-26T23:30:39.626Z,48.70
2023-03-26T23:33:06.407Z,48.80
2023-03-26T23:35:33.128Z,49.10
2023-03-26T23:37:59.822Z,49.50
2023-03-26T23:40:27.783Z,49.50
2023-03-26T23:42:54.406Z,49.20
2023-03-26T23:45:21.081Z,49.30
2023-03-26T23:47:47.785Z,49.40
2023-03-26T23:50:14.517Z,49.20
2023-03-26T23:52:41.186Z,49.30
2023-03-26T23:55:08.637Z,49.60
2023-03-26T23:57:36.815Z,49.50
